LOT2164 LEBL-EPKK
Flight info
| Callsign | LOT2164 |
|---|---|
| Flight time | 2h 23m |
| Altitude | 34000 |
| Route | AGENA DCT BODEQ DCT LUMAS/N0450F380 DCT NIBIK DCT NETUP DCT STP DCT RAPED DCT PIGOS DCT EKSID DCT NOSTA DCT NOPMU DCT MALUG/N0455F370 DCT INGID DCT GAMLI DCT LEDVA/N0454F390 DCT NETIR |
| Aircraft | B738/M-SDE2E3FGHIRWXY/LB1 |
Departure
| Time | 2026-05-01 08:22 |
|---|---|
| Airport | Josep Tarradellas Barcelona-El Prat Airport (LEBL) |
Arrival
| Time | 2026-05-01 10:45 |
|---|---|
| Airport | Kraków John Paul II International Airport (EPKK) |
| Time | Latitude | Longitude | Altitude | Speed | Heading |
|---|---|---|---|---|---|
| 2026-05-01 07:52 | 41.29009 | 2.08005 | 18 ft | 0 kts | 336° |
| 2026-05-01 08:05 | 41.29008 | 2.08005 | 18 ft | 0 kts | 336° |
| 2026-05-01 08:10 | 41.29008 | 2.08006 | 18 ft | 0 kts | 336° |
| 2026-05-01 08:14 | 41.28997 | 2.08012 | 18 ft | 4 kts | 333° |
| 2026-05-01 08:15 | 41.28974 | 2.08030 | 20 ft | 4 kts | 321° |
| 2026-05-01 08:15 | 41.28951 | 2.08078 | 18 ft | 3 kts | 249° |
| 2026-05-01 08:15 | 41.28952 | 2.08082 | 18 ft | 0 kts | 245° |
| 2026-05-01 08:19 | 41.28935 | 2.08033 | 19 ft | 7 kts | 245° |
| 2026-05-01 08:19 | 41.28906 | 2.07949 | 18 ft | 13 kts | 246° |
| 2026-05-01 08:19 | 41.28847 | 2.07861 | 17 ft | 14 kts | 178° |
| 2026-05-01 08:19 | 41.28761 | 2.07908 | 17 ft | 13 kts | 154° |
| 2026-05-01 08:20 | 41.28679 | 2.07958 | 16 ft | 13 kts | 155° |
| 2026-05-01 08:20 | 41.28598 | 2.07957 | 17 ft | 13 kts | 229° |
| 2026-05-01 08:20 | 41.28550 | 2.07823 | 17 ft | 20 kts | 244° |
| 2026-05-01 08:20 | 41.28486 | 2.07635 | 16 ft | 23 kts | 246° |
| 2026-05-01 08:21 | 41.28411 | 2.07469 | 16 ft | 20 kts | 209° |
| 2026-05-01 08:21 | 41.28289 | 2.07407 | 17 ft | 17 kts | 192° |
| 2026-05-01 08:21 | 41.28259 | 2.07518 | 20 ft | 19 kts | 65° |
| 2026-05-01 08:21 | 41.28403 | 2.07934 | 20 ft | 84 kts | 65° |
| 2026-05-01 08:22 | 41.28735 | 2.08902 | 21 ft | 143 kts | 65° |
| 2026-05-01 08:22 | 41.29202 | 2.10219 | 420 ft | 162 kts | 63° |
| 2026-05-01 08:22 | 41.29547 | 2.11644 | 1219 ft | 172 kts | 88° |
| 2026-05-01 08:22 | 41.29345 | 2.13282 | 1986 ft | 185 kts | 98° |
| 2026-05-01 08:23 | 41.29112 | 2.14972 | 2738 ft | 186 kts | 97° |
| 2026-05-01 08:23 | 41.28919 | 2.16675 | 3521 ft | 189 kts | 96° |
| 2026-05-01 08:23 | 41.28722 | 2.18451 | 4182 ft | 191 kts | 98° |
| 2026-05-01 08:23 | 41.28551 | 2.20160 | 5117 ft | 187 kts | 98° |
| 2026-05-01 08:24 | 41.28385 | 2.21893 | 5668 ft | 198 kts | 98° |
| 2026-05-01 08:24 | 41.28206 | 2.23779 | 6163 ft | 208 kts | 98° |
| 2026-05-01 08:24 | 41.28037 | 2.25655 | 6980 ft | 204 kts | 98° |
| 2026-05-01 08:24 | 41.27855 | 2.27565 | 7483 ft | 213 kts | 99° |
| 2026-05-01 08:25 | 41.27665 | 2.29512 | 8205 ft | 210 kts | 99° |
| 2026-05-01 08:25 | 41.27481 | 2.31446 | 8834 ft | 217 kts | 98° |
| 2026-05-01 08:25 | 41.27268 | 2.33524 | 9135 ft | 235 kts | 99° |
| 2026-05-01 08:25 | 41.27027 | 2.35792 | 9308 ft | 261 kts | 99° |
| 2026-05-01 08:26 | 41.26760 | 2.38231 | 9943 ft | 270 kts | 99° |
| 2026-05-01 08:26 | 41.26497 | 2.40691 | 10727 ft | 274 kts | 99° |
| 2026-05-01 08:26 | 41.26222 | 2.43213 | 11438 ft | 281 kts | 98° |
| 2026-05-01 08:26 | 41.25952 | 2.45901 | 11722 ft | 303 kts | 97° |
| 2026-05-01 08:27 | 41.25679 | 2.48706 | 12523 ft | 303 kts | 98° |
| 2026-05-01 08:27 | 41.25382 | 2.51502 | 13225 ft | 314 kts | 98° |
| 2026-05-01 08:27 | 41.25089 | 2.54501 | 13393 ft | 339 kts | 92° |
| 2026-05-01 08:27 | 41.25251 | 2.57721 | 13573 ft | 361 kts | 79° |
| 2026-05-01 08:28 | 41.25990 | 2.60995 | 13817 ft | 379 kts | 68° |
| 2026-05-01 08:28 | 41.27036 | 2.64259 | 14347 ft | 386 kts | 66° |
| 2026-05-01 08:28 | 41.28143 | 2.67536 | 14980 ft | 390 kts | 65° |
| 2026-05-01 08:28 | 41.29253 | 2.70795 | 15613 ft | 394 kts | 65° |
| 2026-05-01 08:29 | 41.30385 | 2.74130 | 16238 ft | 398 kts | 65° |
| 2026-05-01 08:29 | 41.31521 | 2.77519 | 16814 ft | 403 kts | 66° |
| 2026-05-01 08:29 | 41.32656 | 2.80946 | 17532 ft | 404 kts | 66° |
| 2026-05-01 08:29 | 41.33788 | 2.84399 | 18096 ft | 409 kts | 65° |
| 2026-05-01 08:30 | 41.34912 | 2.87847 | 18660 ft | 413 kts | 65° |
| 2026-05-01 08:30 | 41.36056 | 2.91373 | 19096 ft | 419 kts | 66° |
| 2026-05-01 08:30 | 41.37213 | 2.94946 | 19681 ft | 420 kts | 66° |
| 2026-05-01 08:30 | 41.38376 | 2.98542 | 20079 ft | 427 kts | 65° |
| 2026-05-01 08:31 | 41.39555 | 3.02190 | 20635 ft | 428 kts | 66° |
| 2026-05-01 08:31 | 41.40735 | 3.05848 | 21139 ft | 432 kts | 65° |
| 2026-05-01 08:31 | 41.41924 | 3.09541 | 21631 ft | 434 kts | 65° |
| 2026-05-01 08:31 | 41.43121 | 3.13262 | 22049 ft | 439 kts | 65° |
| 2026-05-01 08:32 | 41.44331 | 3.17026 | 22472 ft | 443 kts | 66° |
| 2026-05-01 08:32 | 41.45546 | 3.20819 | 22915 ft | 447 kts | 65° |
| 2026-05-01 08:32 | 41.46772 | 3.24646 | 23353 ft | 450 kts | 65° |
| 2026-05-01 08:32 | 41.48002 | 3.28492 | 23796 ft | 453 kts | 65° |
| 2026-05-01 08:33 | 41.49245 | 3.32383 | 24131 ft | 456 kts | 65° |
| 2026-05-01 08:33 | 41.50473 | 3.36232 | 24524 ft | 458 kts | 65° |
| 2026-05-01 08:33 | 41.51722 | 3.40154 | 24880 ft | 460 kts | 66° |
| 2026-05-01 08:33 | 41.52978 | 3.44102 | 25180 ft | 465 kts | 66° |
| 2026-05-01 08:34 | 41.54236 | 3.48102 | 25526 ft | 467 kts | 68° |
| 2026-05-01 08:34 | 41.55216 | 3.52249 | 25927 ft | 469 kts | 76° |
| 2026-05-01 08:34 | 41.55913 | 3.56520 | 26266 ft | 471 kts | 78° |
| 2026-05-01 08:34 | 41.56563 | 3.60823 | 26583 ft | 474 kts | 78° |
| 2026-05-01 08:35 | 41.57213 | 3.65094 | 26924 ft | 476 kts | 77° |
| 2026-05-01 08:35 | 41.57903 | 3.69479 | 27259 ft | 478 kts | 77° |
| 2026-05-01 08:35 | 41.58597 | 3.73771 | 27569 ft | 480 kts | 77° |
| 2026-05-01 08:35 | 41.59317 | 3.78157 | 27856 ft | 483 kts | 77° |
| 2026-05-01 08:36 | 41.60038 | 3.82547 | 28142 ft | 485 kts | 77° |
| 2026-05-01 08:36 | 41.60760 | 3.86970 | 28445 ft | 487 kts | 77° |
| 2026-05-01 08:36 | 41.61473 | 3.91382 | 28895 ft | 485 kts | 77° |
| 2026-05-01 08:36 | 41.62178 | 3.95780 | 29355 ft | 484 kts | 77° |
| 2026-05-01 08:37 | 41.62883 | 4.00197 | 29640 ft | 486 kts | 77° |
| 2026-05-01 08:37 | 41.63589 | 4.04629 | 29940 ft | 488 kts | 77° |
| 2026-05-01 08:37 | 41.64294 | 4.09066 | 30305 ft | 488 kts | 77° |
| 2026-05-01 08:37 | 41.64989 | 4.13446 | 30668 ft | 486 kts | 77° |
| 2026-05-01 08:38 | 41.65687 | 4.17855 | 31032 ft | 485 kts | 77° |
| 2026-05-01 08:38 | 41.66384 | 4.22271 | 31350 ft | 485 kts | 77° |
| 2026-05-01 08:38 | 41.67082 | 4.26703 | 31604 ft | 486 kts | 77° |
| 2026-05-01 08:38 | 41.67780 | 4.31142 | 31909 ft | 486 kts | 77° |
| 2026-05-01 08:39 | 41.68475 | 4.35575 | 32258 ft | 485 kts | 77° |
| 2026-05-01 08:39 | 41.69163 | 4.39980 | 32630 ft | 484 kts | 77° |
| 2026-05-01 08:39 | 41.69851 | 4.44396 | 32938 ft | 484 kts | 77° |
| 2026-05-01 08:39 | 41.70528 | 4.48747 | 33231 ft | 484 kts | 77° |
| 2026-05-01 08:40 | 41.71895 | 4.57571 | 33826 ft | 483 kts | 77° |
| 2026-05-01 08:40 | 41.72666 | 4.61936 | 34263 ft | 478 kts | 70° |
| 2026-05-01 08:40 | 41.73482 | 4.64711 | 34508 ft | 473 kts | 58° |
| 2026-05-01 08:41 | 41.75101 | 4.68461 | 34772 ft | 469 kts | 52° |
| 2026-05-01 08:41 | 41.77164 | 4.71829 | 34944 ft | 467 kts | 41° |
| 2026-05-01 08:41 | 41.79523 | 4.74814 | 35158 ft | 466 kts | 40° |
| 2026-05-01 08:41 | 41.81913 | 4.77763 | 35415 ft | 465 kts | 40° |
| 2026-05-01 08:42 | 41.84296 | 4.80698 | 35664 ft | 465 kts | 40° |
| 2026-05-01 08:42 | 41.86682 | 4.83655 | 35899 ft | 465 kts | 40° |
| 2026-05-01 08:42 | 41.89016 | 4.86571 | 36131 ft | 465 kts | 40° |
| 2026-05-01 08:42 | 41.91372 | 4.89538 | 36458 ft | 462 kts | 41° |
| 2026-05-01 08:43 | 41.93709 | 4.92496 | 36667 ft | 462 kts | 40° |
| 2026-05-01 08:43 | 41.96046 | 4.95465 | 36865 ft | 462 kts | 40° |
| 2026-05-01 08:43 | 41.98383 | 4.98440 | 37128 ft | 461 kts | 40° |
| 2026-05-01 08:43 | 42.00705 | 5.01398 | 37392 ft | 460 kts | 40° |
| 2026-05-01 08:44 | 42.03034 | 5.04366 | 37540 ft | 460 kts | 40° |
| 2026-05-01 08:44 | 42.05329 | 5.07294 | 37808 ft | 458 kts | 40° |
| 2026-05-01 08:44 | 42.07677 | 5.10291 | 37963 ft | 459 kts | 41° |
| 2026-05-01 08:44 | 42.09961 | 5.13213 | 38213 ft | 456 kts | 41° |
| 2026-05-01 08:45 | 42.14546 | 5.19083 | 38259 ft | 454 kts | 41° |
| 2026-05-01 08:45 | 42.19149 | 5.24985 | 38262 ft | 458 kts | 39° |
| 2026-05-01 08:46 | 42.23785 | 5.30946 | 38261 ft | 461 kts | 41° |
| 2026-05-01 08:46 | 42.28439 | 5.36947 | 38281 ft | 464 kts | 40° |
| 2026-05-01 08:47 | 42.33077 | 5.42935 | 38265 ft | 458 kts | 40° |
| 2026-05-01 08:47 | 42.37648 | 5.48853 | 38261 ft | 452 kts | 41° |
| 2026-05-01 08:48 | 42.42153 | 5.54690 | 38263 ft | 449 kts | 41° |
| 2026-05-01 08:48 | 42.46683 | 5.60574 | 38280 ft | 453 kts | 40° |
| 2026-05-01 08:49 | 42.51258 | 5.66532 | 38276 ft | 458 kts | 41° |
| 2026-05-01 08:49 | 42.55853 | 5.72533 | 38300 ft | 459 kts | 41° |
| 2026-05-01 08:50 | 42.60465 | 5.78565 | 38281 ft | 459 kts | 40° |
| 2026-05-01 08:50 | 42.65061 | 5.84587 | 38288 ft | 458 kts | 40° |
| 2026-05-01 08:51 | 42.69620 | 5.90577 | 38283 ft | 457 kts | 40° |
| 2026-05-01 08:51 | 42.74182 | 5.96584 | 38284 ft | 456 kts | 40° |
| 2026-05-01 08:52 | 42.78735 | 6.02593 | 38287 ft | 454 kts | 40° |
| 2026-05-01 08:52 | 42.83242 | 6.08551 | 38288 ft | 453 kts | 40° |
| 2026-05-01 08:53 | 42.87749 | 6.14524 | 38298 ft | 452 kts | 40° |
| 2026-05-01 08:53 | 42.92248 | 6.20497 | 38288 ft | 450 kts | 40° |
| 2026-05-01 08:54 | 42.96741 | 6.26476 | 38293 ft | 449 kts | 40° |
| 2026-05-01 08:54 | 43.01192 | 6.32412 | 38293 ft | 449 kts | 40° |
| 2026-05-01 08:55 | 43.05656 | 6.38377 | 38304 ft | 448 kts | 40° |
| 2026-05-01 08:55 | 43.10124 | 6.44361 | 38304 ft | 448 kts | 40° |
| 2026-05-01 08:56 | 43.14586 | 6.50351 | 38308 ft | 449 kts | 40° |
| 2026-05-01 08:56 | 43.19021 | 6.56315 | 38312 ft | 449 kts | 40° |
| 2026-05-01 08:57 | 43.23324 | 6.62564 | 38306 ft | 454 kts | 49° |
| 2026-05-01 08:57 | 43.27011 | 6.69626 | 38327 ft | 455 kts | 51° |
| 2026-05-01 08:58 | 43.30674 | 6.76728 | 38320 ft | 455 kts | 50° |
| 2026-05-01 08:58 | 43.34363 | 6.83734 | 38324 ft | 455 kts | 50° |
| 2026-05-01 08:59 | 43.38081 | 6.90779 | 38326 ft | 455 kts | 50° |
| 2026-05-01 08:59 | 43.41784 | 6.97837 | 38320 ft | 454 kts | 50° |
| 2026-05-01 09:00 | 43.45481 | 7.04911 | 38320 ft | 454 kts | 50° |
| 2026-05-01 09:00 | 43.49144 | 7.11932 | 38321 ft | 453 kts | 50° |
| 2026-05-01 09:01 | 43.52818 | 7.18993 | 38326 ft | 453 kts | 50° |
| 2026-05-01 09:01 | 43.56486 | 7.26057 | 38323 ft | 452 kts | 50° |
| 2026-05-01 09:02 | 43.60146 | 7.33123 | 38321 ft | 452 kts | 50° |
| 2026-05-01 09:02 | 43.64041 | 7.39813 | 38325 ft | 448 kts | 45° |
| 2026-05-01 09:03 | 43.68177 | 7.46260 | 38322 ft | 448 kts | 44° |
| 2026-05-01 09:03 | 43.72289 | 7.52739 | 38332 ft | 448 kts | 45° |
| 2026-05-01 09:04 | 43.76337 | 7.59238 | 38349 ft | 448 kts | 45° |
| 2026-05-01 09:04 | 43.80397 | 7.65805 | 38335 ft | 448 kts | 45° |
| 2026-05-01 09:05 | 43.84450 | 7.72373 | 38333 ft | 448 kts | 45° |
| 2026-05-01 09:05 | 43.88475 | 7.78909 | 38318 ft | 448 kts | 45° |
| 2026-05-01 09:06 | 43.92509 | 7.85474 | 38319 ft | 446 kts | 45° |
| 2026-05-01 09:06 | 43.96541 | 7.92017 | 38317 ft | 444 kts | 45° |
| 2026-05-01 09:07 | 44.00604 | 7.98424 | 38320 ft | 443 kts | 45° |
| 2026-05-01 09:07 | 44.04693 | 8.04837 | 38292 ft | 442 kts | 45° |
| 2026-05-01 09:08 | 44.08759 | 8.11246 | 38282 ft | 441 kts | 45° |
| 2026-05-01 09:08 | 44.12803 | 8.17651 | 38290 ft | 439 kts | 45° |
| 2026-05-01 09:09 | 44.16829 | 8.24048 | 38307 ft | 439 kts | 45° |
| 2026-05-01 09:09 | 44.20848 | 8.30449 | 38318 ft | 439 kts | 45° |
| 2026-05-01 09:10 | 44.24843 | 8.36826 | 38347 ft | 439 kts | 45° |
| 2026-05-01 09:10 | 44.28864 | 8.43260 | 38352 ft | 438 kts | 45° |
| 2026-05-01 09:11 | 44.32874 | 8.49689 | 38344 ft | 438 kts | 46° |
| 2026-05-01 09:11 | 44.36872 | 8.56115 | 38324 ft | 438 kts | 46° |
| 2026-05-01 09:12 | 44.40842 | 8.62509 | 38325 ft | 437 kts | 46° |
| 2026-05-01 09:12 | 44.44825 | 8.68942 | 38341 ft | 435 kts | 46° |
| 2026-05-01 09:13 | 44.48764 | 8.75315 | 38327 ft | 436 kts | 45° |
| 2026-05-01 09:13 | 44.52733 | 8.81749 | 38325 ft | 436 kts | 45° |
| 2026-05-01 09:14 | 44.56694 | 8.88188 | 38328 ft | 435 kts | 45° |
| 2026-05-01 09:14 | 44.60627 | 8.94594 | 38338 ft | 435 kts | 45° |
| 2026-05-01 09:15 | 44.64569 | 9.01033 | 38351 ft | 435 kts | 46° |
| 2026-05-01 09:15 | 44.68518 | 9.07493 | 38361 ft | 435 kts | 46° |
| 2026-05-01 09:16 | 44.72466 | 9.13969 | 38381 ft | 436 kts | 45° |
| 2026-05-01 09:17 | 44.78395 | 9.23721 | 38369 ft | 437 kts | 45° |
| 2026-05-01 09:17 | 44.84292 | 9.33456 | 38363 ft | 437 kts | 46° |
| 2026-05-01 09:18 | 44.90197 | 9.43238 | 38373 ft | 436 kts | 46° |
| 2026-05-01 09:19 | 44.96084 | 9.53023 | 38378 ft | 435 kts | 46° |
| 2026-05-01 09:20 | 45.01936 | 9.62784 | 38384 ft | 435 kts | 46° |
| 2026-05-01 09:21 | 45.09738 | 9.75849 | 38377 ft | 434 kts | 46° |
| 2026-05-01 09:21 | 45.15566 | 9.85650 | 38393 ft | 433 kts | 46° |
| 2026-05-01 09:22 | 45.23279 | 9.98671 | 38380 ft | 432 kts | 47° |
| 2026-05-01 09:23 | 45.29068 | 10.08485 | 38410 ft | 432 kts | 47° |
| 2026-05-01 09:24 | 45.34821 | 10.18271 | 38380 ft | 431 kts | 47° |
| 2026-05-01 09:25 | 45.42487 | 10.31366 | 38401 ft | 430 kts | 47° |
| 2026-05-01 09:26 | 45.47594 | 10.40124 | 38400 ft | 429 kts | 47° |
| 2026-05-01 09:26 | 45.53277 | 10.49900 | 38392 ft | 428 kts | 47° |
| 2026-05-01 09:27 | 45.58962 | 10.59715 | 38417 ft | 427 kts | 48° |
| 2026-05-01 09:28 | 45.62745 | 10.66265 | 38383 ft | 426 kts | 48° |
| 2026-05-01 09:28 | 45.66492 | 10.72769 | 38377 ft | 425 kts | 48° |
| 2026-05-01 09:29 | 45.72110 | 10.82547 | 38362 ft | 423 kts | 48° |
| 2026-05-01 09:30 | 45.77693 | 10.92297 | 38359 ft | 420 kts | 48° |
| 2026-05-01 09:30 | 45.83246 | 11.02030 | 38364 ft | 419 kts | 48° |
| 2026-05-01 09:31 | 45.86931 | 11.08508 | 38357 ft | 419 kts | 48° |
| 2026-05-01 09:32 | 45.92436 | 11.18214 | 38352 ft | 419 kts | 48° |
| 2026-05-01 09:32 | 45.97950 | 11.27968 | 38358 ft | 419 kts | 48° |
| 2026-05-01 09:33 | 46.01629 | 11.34497 | 38359 ft | 419 kts | 49° |
| 2026-05-01 09:34 | 46.07112 | 11.44253 | 38357 ft | 416 kts | 49° |
| 2026-05-01 09:34 | 46.12557 | 11.53977 | 38340 ft | 413 kts | 49° |
| 2026-05-01 09:35 | 46.17963 | 11.63672 | 38364 ft | 413 kts | 49° |
| 2026-05-01 09:36 | 46.21571 | 11.70156 | 38363 ft | 414 kts | 49° |
| 2026-05-01 09:36 | 46.25162 | 11.76617 | 38356 ft | 415 kts | 49° |
| 2026-05-01 09:37 | 46.28781 | 11.83146 | 38412 ft | 416 kts | 49° |
| 2026-05-01 09:37 | 46.34237 | 11.93023 | 38355 ft | 419 kts | 49° |
| 2026-05-01 09:38 | 46.39678 | 12.02917 | 38358 ft | 417 kts | 49° |
| 2026-05-01 09:39 | 46.45051 | 12.12718 | 38349 ft | 414 kts | 50° |
| 2026-05-01 09:39 | 46.48636 | 12.19277 | 38373 ft | 414 kts | 49° |
| 2026-05-01 09:40 | 46.53980 | 12.29082 | 38363 ft | 411 kts | 50° |
| 2026-05-01 09:41 | 46.57500 | 12.35558 | 38393 ft | 407 kts | 50° |
| 2026-05-01 09:41 | 46.62727 | 12.45204 | 38387 ft | 406 kts | 50° |
| 2026-05-01 09:42 | 46.66221 | 12.51674 | 38385 ft | 407 kts | 50° |
| 2026-05-01 09:43 | 46.73219 | 12.64719 | 38357 ft | 409 kts | 50° |
| 2026-05-01 09:43 | 46.76663 | 12.71273 | 38357 ft | 409 kts | 51° |
| 2026-05-01 09:44 | 46.81869 | 12.81201 | 38331 ft | 411 kts | 51° |
| 2026-05-01 09:45 | 46.85336 | 12.87830 | 38344 ft | 410 kts | 51° |
| 2026-05-01 09:45 | 46.90493 | 12.97716 | 38354 ft | 405 kts | 51° |
| 2026-05-01 09:46 | 46.93923 | 13.04306 | 38338 ft | 407 kts | 51° |
| 2026-05-01 09:46 | 46.97327 | 13.10861 | 38336 ft | 405 kts | 51° |
| 2026-05-01 09:47 | 47.00740 | 13.17453 | 38343 ft | 406 kts | 51° |
| 2026-05-01 09:47 | 47.04161 | 13.24085 | 38362 ft | 407 kts | 51° |
| 2026-05-01 09:48 | 47.07589 | 13.30732 | 38365 ft | 411 kts | 51° |
| 2026-05-01 09:48 | 47.11045 | 13.37445 | 38378 ft | 412 kts | 51° |
| 2026-05-01 09:49 | 47.14505 | 13.44189 | 38348 ft | 413 kts | 51° |
| 2026-05-01 09:49 | 47.17963 | 13.50954 | 38340 ft | 413 kts | 51° |
| 2026-05-01 09:50 | 47.21396 | 13.57683 | 38360 ft | 411 kts | 51° |
| 2026-05-01 09:50 | 47.24821 | 13.64402 | 38337 ft | 410 kts | 51° |
| 2026-05-01 09:51 | 47.28285 | 13.70987 | 38376 ft | 409 kts | 48° |
| 2026-05-01 09:51 | 47.32029 | 13.77300 | 38376 ft | 409 kts | 47° |
| 2026-05-01 09:52 | 47.35808 | 13.83569 | 38376 ft | 408 kts | 47° |
| 2026-05-01 09:52 | 47.39551 | 13.89846 | 38384 ft | 407 kts | 47° |
| 2026-05-01 09:53 | 47.43270 | 13.96139 | 38378 ft | 406 kts | 47° |
| 2026-05-01 09:53 | 47.46953 | 14.02399 | 38388 ft | 405 kts | 47° |
| 2026-05-01 09:54 | 47.50648 | 14.08694 | 38391 ft | 404 kts | 47° |
| 2026-05-01 09:54 | 47.54330 | 14.14982 | 38390 ft | 403 kts | 47° |
| 2026-05-01 09:55 | 47.57980 | 14.21231 | 38401 ft | 403 kts | 47° |
| 2026-05-01 09:55 | 47.61650 | 14.27527 | 38392 ft | 403 kts | 48° |
| 2026-05-01 09:56 | 47.65320 | 14.33838 | 38402 ft | 403 kts | 48° |
| 2026-05-01 09:56 | 47.68962 | 14.40117 | 38402 ft | 404 kts | 48° |
| 2026-05-01 09:57 | 47.72631 | 14.46455 | 38407 ft | 404 kts | 48° |
| 2026-05-01 09:57 | 47.76291 | 14.52793 | 38390 ft | 404 kts | 48° |
| 2026-05-01 09:58 | 47.79939 | 14.59126 | 38397 ft | 403 kts | 48° |
| 2026-05-01 09:58 | 47.83583 | 14.65469 | 38406 ft | 402 kts | 48° |
| 2026-05-01 09:59 | 47.87216 | 14.71805 | 38402 ft | 402 kts | 48° |
| 2026-05-01 09:59 | 47.90823 | 14.78169 | 38412 ft | 402 kts | 51° |
| 2026-05-01 10:00 | 47.93895 | 14.85162 | 38410 ft | 404 kts | 56° |
| 2026-05-01 10:00 | 47.96828 | 14.92246 | 38424 ft | 403 kts | 56° |
| 2026-05-01 10:01 | 47.99793 | 14.99372 | 38424 ft | 403 kts | 56° |
| 2026-05-01 10:01 | 48.02772 | 15.06484 | 38411 ft | 404 kts | 55° |
| 2026-05-01 10:02 | 48.05757 | 15.13607 | 38415 ft | 404 kts | 55° |
| 2026-05-01 10:02 | 48.08722 | 15.20694 | 38409 ft | 404 kts | 56° |
| 2026-05-01 10:03 | 48.11699 | 15.27828 | 38410 ft | 403 kts | 56° |
| 2026-05-01 10:03 | 48.14664 | 15.34955 | 38420 ft | 403 kts | 56° |
| 2026-05-01 10:04 | 48.17622 | 15.42083 | 38421 ft | 403 kts | 56° |
| 2026-05-01 10:04 | 48.20582 | 15.49233 | 38419 ft | 403 kts | 56° |
| 2026-05-01 10:05 | 48.23514 | 15.56335 | 38419 ft | 403 kts | 56° |
| 2026-05-01 10:05 | 48.26464 | 15.63501 | 38421 ft | 404 kts | 56° |
| 2026-05-01 10:06 | 48.29415 | 15.70688 | 38423 ft | 404 kts | 56° |
| 2026-05-01 10:06 | 48.32362 | 15.77886 | 38422 ft | 404 kts | 56° |
| 2026-05-01 10:07 | 48.35313 | 15.85110 | 38413 ft | 405 kts | 56° |
| 2026-05-01 10:07 | 48.38234 | 15.92283 | 38420 ft | 405 kts | 56° |
| 2026-05-01 10:08 | 48.42645 | 16.03148 | 38425 ft | 405 kts | 56° |
| 2026-05-01 10:09 | 48.45085 | 16.09178 | 38405 ft | 406 kts | 56° |
| 2026-05-01 10:09 | 48.48019 | 16.16446 | 38420 ft | 406 kts | 56° |
| 2026-05-01 10:10 | 48.50961 | 16.23754 | 38427 ft | 407 kts | 56° |
| 2026-05-01 10:10 | 48.55772 | 16.34277 | 38415 ft | 406 kts | 51° |
| 2026-05-01 10:11 | 48.59111 | 16.41098 | 38408 ft | 406 kts | 52° |
| 2026-05-01 10:11 | 48.62447 | 16.48003 | 38410 ft | 406 kts | 52° |
| 2026-05-01 10:12 | 48.65761 | 16.54945 | 38409 ft | 406 kts | 52° |
| 2026-05-01 10:13 | 48.70685 | 16.65332 | 38397 ft | 407 kts | 52° |
| 2026-05-01 10:13 | 48.73982 | 16.72314 | 38400 ft | 407 kts | 52° |
| 2026-05-01 10:14 | 48.78920 | 16.82803 | 38431 ft | 407 kts | 52° |
| 2026-05-01 10:14 | 48.82211 | 16.89818 | 38400 ft | 407 kts | 52° |
| 2026-05-01 10:15 | 48.85467 | 16.96775 | 38384 ft | 406 kts | 52° |
| 2026-05-01 10:15 | 48.88740 | 17.03784 | 38391 ft | 406 kts | 52° |
| 2026-05-01 10:16 | 48.92004 | 17.10796 | 38393 ft | 405 kts | 52° |
| 2026-05-01 10:17 | 48.96856 | 17.21250 | 38393 ft | 404 kts | 52° |
| 2026-05-01 10:17 | 49.01704 | 17.31737 | 38402 ft | 403 kts | 52° |
| 2026-05-01 10:18 | 49.06532 | 17.42220 | 38401 ft | 402 kts | 52° |
| 2026-05-01 10:19 | 49.09722 | 17.49169 | 38398 ft | 402 kts | 53° |
| 2026-05-01 10:19 | 49.12931 | 17.56180 | 38397 ft | 402 kts | 53° |
| 2026-05-01 10:20 | 49.17707 | 17.66647 | 38385 ft | 402 kts | 53° |
| 2026-05-01 10:20 | 49.20899 | 17.73663 | 38387 ft | 402 kts | 53° |
| 2026-05-01 10:21 | 49.25656 | 17.84159 | 38375 ft | 396 kts | 53° |
| 2026-05-01 10:21 | 49.27231 | 17.87641 | 38001 ft | 402 kts | 53° |
| 2026-05-01 10:22 | 49.30413 | 17.94690 | 36956 ft | 398 kts | 53° |
| 2026-05-01 10:22 | 49.33475 | 18.01499 | 36081 ft | 390 kts | 53° |
| 2026-05-01 10:23 | 49.35035 | 18.04969 | 35441 ft | 400 kts | 53° |
| 2026-05-01 10:23 | 49.38169 | 18.11955 | 34059 ft | 394 kts | 53° |
| 2026-05-01 10:23 | 49.39716 | 18.15414 | 33280 ft | 390 kts | 53° |
| 2026-05-01 10:24 | 49.42724 | 18.22153 | 31843 ft | 382 kts | 53° |
| 2026-05-01 10:24 | 49.45781 | 18.29011 | 30814 ft | 396 kts | 53° |
| 2026-05-01 10:25 | 49.48847 | 18.35911 | 29613 ft | 381 kts | 54° |
| 2026-05-01 10:25 | 49.51749 | 18.42469 | 28559 ft | 361 kts | 54° |
| 2026-05-01 10:26 | 49.53138 | 18.45607 | 28067 ft | 356 kts | 54° |
| 2026-05-01 10:26 | 49.54542 | 18.48783 | 27547 ft | 365 kts | 54° |
| 2026-05-01 10:26 | 49.57452 | 18.55377 | 26446 ft | 367 kts | 54° |
| 2026-05-01 10:27 | 49.60261 | 18.61763 | 25399 ft | 353 kts | 54° |
| 2026-05-01 10:27 | 49.62967 | 18.67930 | 24403 ft | 344 kts | 54° |
| 2026-05-01 10:28 | 49.64324 | 18.71023 | 23902 ft | 354 kts | 54° |
| 2026-05-01 10:28 | 49.67040 | 18.77231 | 22743 ft | 343 kts | 54° |
| 2026-05-01 10:28 | 49.68363 | 18.80263 | 22276 ft | 336 kts | 54° |
| 2026-05-01 10:29 | 49.70941 | 18.86179 | 21258 ft | 331 kts | 54° |
| 2026-05-01 10:29 | 49.72254 | 18.89197 | 20776 ft | 343 kts | 54° |
| 2026-05-01 10:30 | 49.74867 | 18.95212 | 19743 ft | 332 kts | 54° |
| 2026-05-01 10:30 | 49.77404 | 19.01062 | 18802 ft | 323 kts | 54° |
| 2026-05-01 10:31 | 49.79955 | 19.06955 | 17752 ft | 332 kts | 54° |
| 2026-05-01 10:31 | 49.82456 | 19.12753 | 16759 ft | 320 kts | 54° |
| 2026-05-01 10:32 | 49.84832 | 19.18271 | 15856 ft | 318 kts | 54° |
| 2026-05-01 10:32 | 49.86085 | 19.21180 | 15384 ft | 327 kts | 54° |
| 2026-05-01 10:32 | 49.88557 | 19.26949 | 14432 ft | 315 kts | 54° |
| 2026-05-01 10:33 | 49.90489 | 19.33056 | 13437 ft | 315 kts | 64° |
| 2026-05-01 10:33 | 49.92216 | 19.39400 | 12197 ft | 316 kts | 64° |
| 2026-05-01 10:34 | 49.93073 | 19.42496 | 11734 ft | 309 kts | 63° |
| 2026-05-01 10:34 | 49.93922 | 19.45548 | 11307 ft | 306 kts | 63° |
| 2026-05-01 10:34 | 49.94749 | 19.48596 | 10865 ft | 306 kts | 66° |
| 2026-05-01 10:35 | 49.95739 | 19.55105 | 10121 ft | 314 kts | 75° |
| 2026-05-01 10:35 | 49.96147 | 19.58360 | 9874 ft | 301 kts | 75° |
| 2026-05-01 10:35 | 49.96560 | 19.61542 | 9426 ft | 301 kts | 75° |
| 2026-05-01 10:35 | 49.96983 | 19.64731 | 8984 ft | 301 kts | 75° |
| 2026-05-01 10:36 | 49.97859 | 19.71207 | 8126 ft | 306 kts | 75° |
| 2026-05-01 10:36 | 49.98289 | 19.74405 | 7689 ft | 300 kts | 75° |
| 2026-05-01 10:36 | 49.98718 | 19.77573 | 7274 ft | 300 kts | 75° |
| 2026-05-01 10:37 | 49.99149 | 19.80746 | 6862 ft | 302 kts | 75° |
| 2026-05-01 10:37 | 50.00021 | 19.87197 | 5961 ft | 304 kts | 75° |
| 2026-05-01 10:37 | 50.00443 | 19.90329 | 5817 ft | 288 kts | 75° |
| 2026-05-01 10:38 | 50.00848 | 19.93336 | 5687 ft | 281 kts | 75° |
| 2026-05-01 10:38 | 50.01268 | 19.96450 | 5551 ft | 270 kts | 76° |
| 2026-05-01 10:38 | 50.01622 | 19.99083 | 5442 ft | 259 kts | 75° |
| 2026-05-01 10:38 | 50.01989 | 20.01789 | 5343 ft | 254 kts | 75° |
| 2026-05-01 10:39 | 50.02350 | 20.04448 | 5225 ft | 246 kts | 75° |
| 2026-05-01 10:39 | 50.02691 | 20.06969 | 5119 ft | 236 kts | 75° |
| 2026-05-01 10:39 | 50.03268 | 20.09246 | 5029 ft | 221 kts | 47° |
| 2026-05-01 10:39 | 50.04469 | 20.10611 | 4970 ft | 213 kts | 19° |
| 2026-05-01 10:40 | 50.05907 | 20.11038 | 4886 ft | 210 kts | 357° |
| 2026-05-01 10:40 | 50.07309 | 20.10687 | 4772 ft | 199 kts | 348° |
| 2026-05-01 10:40 | 50.08665 | 20.10239 | 4582 ft | 199 kts | 347° |
| 2026-05-01 10:40 | 50.10026 | 20.09778 | 4376 ft | 202 kts | 345° |
| 2026-05-01 10:41 | 50.11227 | 20.08715 | 4137 ft | 200 kts | 309° |
| 2026-05-01 10:41 | 50.11621 | 20.06735 | 3940 ft | 194 kts | 268° |
| 2026-05-01 10:41 | 50.11157 | 20.02729 | 3556 ft | 184 kts | 261° |
| 2026-05-01 10:42 | 50.10895 | 20.00795 | 3479 ft | 182 kts | 261° |
| 2026-05-01 10:42 | 50.10629 | 19.98898 | 3261 ft | 177 kts | 259° |
| 2026-05-01 10:42 | 50.10368 | 19.97044 | 3006 ft | 174 kts | 259° |
| 2026-05-01 10:42 | 50.10112 | 19.95220 | 2784 ft | 170 kts | 258° |
| 2026-05-01 10:43 | 50.09862 | 19.93449 | 2541 ft | 167 kts | 259° |
| 2026-05-01 10:43 | 50.09619 | 19.91711 | 2342 ft | 165 kts | 258° |
| 2026-05-01 10:43 | 50.09380 | 19.90009 | 2113 ft | 154 kts | 258° |
| 2026-05-01 10:43 | 50.09160 | 19.88432 | 1927 ft | 143 kts | 257° |
| 2026-05-01 10:44 | 50.08956 | 19.86973 | 1721 ft | 132 kts | 257° |
| 2026-05-01 10:44 | 50.08763 | 19.85575 | 1559 ft | 132 kts | 257° |
| 2026-05-01 10:44 | 50.08566 | 19.84174 | 1407 ft | 133 kts | 255° |
| 2026-05-01 10:44 | 50.08365 | 19.82734 | 1221 ft | 135 kts | 258° |
| 2026-05-01 10:45 | 50.08163 | 19.81365 | 1036 ft | 128 kts | 256° |
| 2026-05-01 10:45 | 50.07979 | 19.79973 | 838 ft | 134 kts | 258° |
| 2026-05-01 10:45 | 50.07799 | 19.78665 | 800 ft | 103 kts | 258° |
| 2026-05-01 10:45 | 50.07701 | 19.78104 | 798 ft | 22 kts | 203° |
| 2026-05-01 10:46 | 50.07547 | 19.78084 | 799 ft | 22 kts | 184° |
| 2026-05-01 10:46 | 50.07478 | 19.78189 | 799 ft | 16 kts | 79° |
| 2026-05-01 10:46 | 50.07503 | 19.78369 | 799 ft | 19 kts | 78° |
| 2026-05-01 10:46 | 50.07535 | 19.78597 | 799 ft | 24 kts | 78° |
| 2026-05-01 10:47 | 50.07577 | 19.78886 | 799 ft | 30 kts | 77° |
| 2026-05-01 10:47 | 50.07621 | 19.79215 | 799 ft | 29 kts | 78° |
| 2026-05-01 10:47 | 50.07663 | 19.79515 | 799 ft | 27 kts | 78° |
| 2026-05-01 10:47 | 50.07669 | 19.79682 | 799 ft | 12 kts | 131° |
| 2026-05-01 10:48 | 50.07590 | 19.79719 | 799 ft | 12 kts | 168° |
| 2026-05-01 10:48 | 50.07511 | 19.79745 | 799 ft | 12 kts | 168° |
| 2026-05-01 10:48 | 50.07433 | 19.79771 | 799 ft | 11 kts | 167° |
| 2026-05-01 10:48 | 50.07379 | 19.79779 | 799 ft | 7 kts | 199° |
| 2026-05-01 10:49 | 50.07335 | 19.79758 | 799 ft | 7 kts | 172° |
| 2026-05-01 10:49 | 50.07298 | 19.79770 | 799 ft | 3 kts | 167° |
| 2026-05-01 10:49 | 50.07280 | 19.79776 | 799 ft | 1 kts | 168° |
| 2026-05-01 10:49 | 50.07274 | 19.79779 | 799 ft | 0 kts | 168° |
| 2026-05-01 10:50 | 50.07274 | 19.79778 | 799 ft | 0 kts | 168° |